Time;durP1;ratioP1;P1;durP2;ratioP2;P2;SDS_P1;SDS_P2;PMS_P1;PMS_P2;Temp;Humidity;BMP_temperature;BMP_pressure;BME280_temperature;BME280_humidity;BME280_pressure;Samples;Min_cycle;Max_cycle;Signal;HPM_P1;HPM_P2
2023/02/23 00:02:09;;;;;;;;;;;;;;;8.87;100.00;101194.84;10458701;28;20012;-70
2023/02/23 00:07:12;;;;;;;;;;;;;;;9.06;100.00;101194.03;10473564;28;19978;-71
2023/02/23 00:12:15;;;;;;;;;;;;;;;8.97;100.00;101197.06;10459562;28;19925;-71
2023/02/23 00:17:18;;;;;;;;;;;;;;;8.84;100.00;101187.16;10457794;28;20306;-71
2023/02/23 00:22:20;;;;;;;;;;;;;;;8.93;100.00;101189.34;10458400;28;19979;-70
2023/02/23 00:27:22;;;;;;;;;;;;;;;8.66;100.00;101180.13;10459025;28;19932;-71
2023/02/23 00:32:25;;;;;;;;;;;;;;;8.89;100.00;101190.41;10457652;28;19979;-70
2023/02/23 00:37:27;;;;;;;;;;;;;;;8.91;100.00;101180.75;10471475;28;19982;-70
2023/02/23 00:42:31;;;;;;;;;;;;;;;8.77;100.00;101183.09;10457790;28;19929;-70
2023/02/23 00:47:34;;;;;;;;;;;;;;;8.84;100.00;101186.28;10457348;28;19937;-70
2023/02/23 00:52:37;;;;;;;;;;;;;;;8.59;100.00;101186.50;10457455;28;19933;-70
2023/02/23 00:57:40;;;;;;;;;;;;;;;8.88;100.00;101182.66;10471147;28;19932;-70
2023/02/23 01:02:44;;;;;;;;;;;;;;;8.78;100.00;101176.97;10471750;28;19928;-71
2023/02/23 01:07:47;;;;;;;;;;;;;;;8.77;100.00;101180.50;10456568;28;19924;-70
2023/02/23 01:12:50;;;;;;;;;;;;;;;8.85;100.00;101178.41;10456695;28;19933;-70
2023/02/23 01:17:52;;;;;;;;;;;;;;;8.65;100.00;101186.25;10455664;28;19925;-70
2023/02/23 01:22:54;;;;;;;;;;;;;;;8.66;100.00;101188.81;10456125;28;19929;-70
2023/02/23 01:27:56;;;;;;;;;;;;;;;8.68;100.00;101196.56;10457287;28;19932;-70
2023/02/23 01:32:59;;;;;;;;;;;;;;;8.52;100.00;101191.13;10454617;28;19924;-71
2023/02/23 01:38:02;;;;;;;;;;;;;;;8.50;100.00;101187.75;10456365;28;19924;-70
2023/02/23 01:43:10;;;;;;;;;;;;;;;8.57;100.00;101186.56;10457389;28;19925;-70
2023/02/23 01:48:14;;;;;;;;;;;;;;;8.57;100.00;101194.41;10464626;28;20372;-71
2023/02/23 01:53:16;;;;;;;;;;;;;;;8.70;100.00;101194.75;10463294;28;19929;-70
2023/02/23 01:58:18;;;;;;;;;;;;;;;8.68;100.00;101196.56;10462590;28;19982;-70
2023/02/23 02:03:32;;;;;;;;;;;;;;;8.27;100.00;101205.19;10480087;28;19925;-70
2023/02/23 02:08:42;;;;;;;;;;;;;;;8.32;100.00;101205.00;10479172;28;19974;-70
2023/02/23 02:13:44;;;;;;;;;;;;;;;8.50;100.00;101204.25;10463358;28;19925;-70
2023/02/23 02:18:53;;;;;;;;;;;;;;;8.46;100.00;101196.66;10478739;28;19976;-70
2023/02/23 02:24:14;;;;;;;;;;;;;;;8.36;100.00;101202.19;10462612;28;20285;-70
2023/02/23 02:29:35;;;;;;;;;;;;;;;8.30;100.00;101199.84;10463013;28;19924;-70
2023/02/23 02:34:37;;;;;;;;;;;;;;;8.16;100.00;101207.41;10463382;28;19952;-70
2023/02/23 02:39:45;;;;;;;;;;;;;;;8.41;100.00;101201.19;10443830;28;19971;-70
2023/02/23 02:44:53;;;;;;;;;;;;;;;8.40;100.00;101195.09;10445402;28;20054;-70
2023/02/23 02:50:22;;;;;;;;;;;;;;;8.32;100.00;101199.78;10461424;28;19986;-70
2023/02/23 02:55:25;;;;;;;;;;;;;;;8.28;100.00;101196.44;10458275;28;19925;-70
2023/02/23 04:20:50;;;;;;;;;;;;;;;8.07;100.00;101239.91;10474542;28;19951;-70
2023/02/23 04:25:53;;;;;;;;;;;;;;;7.89;100.00;101240.66;10458202;28;19928;-70
2023/02/23 04:30:55;;;;;;;;;;;;;;;8.11;100.00;101240.63;10474345;28;19928;-70
2023/02/23 04:35:58;;;;;;;;;;;;;;;8.15;100.00;101240.47;10458754;28;19928;-70
2023/02/23 04:41:00;;;;;;;;;;;;;;;8.04;100.00;101237.44;10456903;28;19925;-70
2023/02/23 04:46:02;;;;;;;;;;;;;;;7.95;100.00;101246.47;10440087;28;19925;-70
2023/02/23 04:51:05;;;;;;;;;;;;;;;8.10;100.00;101245.00;10458199;28;19925;-70
2023/02/23 04:56:07;;;;;;;;;;;;;;;7.93;100.00;101247.41;10472322;28;20338;-70
2023/02/23 05:01:09;;;;;;;;;;;;;;;8.14;100.00;101253.56;10455331;28;20368;-70
2023/02/23 05:06:12;;;;;;;;;;;;;;;7.98;100.00;101255.91;10457101;28;19933;-70
2023/02/23 05:11:14;;;;;;;;;;;;;;;8.11;100.00;101257.13;10457052;28;19990;-70
2023/02/23 05:16:17;;;;;;;;;;;;;;;8.01;100.00;101261.00;10456718;28;20292;-70
2023/02/23 05:21:19;;;;;;;;;;;;;;;7.95;100.00;101267.31;10455715;28;19924;-70
2023/02/23 05:26:21;;;;;;;;;;;;;;;8.18;100.00;101262.94;10457296;28;19925;-70
2023/02/23 05:31:23;;;;;;;;;;;;;;;8.00;100.00;101267.13;10455660;28;20284;-70
2023/02/23 05:36:26;;;;;;;;;;;;;;;7.79;100.00;101276.63;10455730;28;19932;-70
2023/02/23 05:41:28;;;;;;;;;;;;;;;7.94;100.00;101278.66;10471769;28;20296;-70
2023/02/23 05:46:30;;;;;;;;;;;;;;;8.05;100.00;101274.78;10457109;28;19925;-70
2023/02/23 05:51:33;;;;;;;;;;;;;;;8.08;100.00;101267.69;10455857;28;19954;-70
2023/02/23 05:56:35;;;;;;;;;;;;;;;7.95;100.00;101269.94;10471183;28;19932;-69
2023/02/23 06:01:37;;;;;;;;;;;;;;;8.05;100.00;101274.78;10471154;28;20384;-70
2023/02/23 06:06:40;;;;;;;;;;;;;;;7.94;100.00;101281.25;10471978;28;19932;-69
2023/02/23 06:11:42;;;;;;;;;;;;;;;7.75;100.00;101285.47;10470930;28;19979;-70
2023/02/23 06:16:47;;;;;;;;;;;;;;;7.94;100.00;101293.47;10456365;28;19924;-70
2023/02/23 06:21:49;;;;;;;;;;;;;;;7.97;100.00;101293.34;10453891;28;20276;-70
2023/02/23 06:26:51;;;;;;;;;;;;;;;7.78;100.00;101301.00;10455568;28;19990;-69
2023/02/23 06:31:54;;;;;;;;;;;;;;;7.89;100.00;101306.66;10460749;28;19970;-70
2023/02/23 06:36:56;;;;;;;;;;;;;;;7.98;100.00;101308.94;10463425;28;19925;-69
2023/02/23 06:41:59;;;;;;;;;;;;;;;7.93;100.00;101313.44;10461948;28;19975;-70
2023/02/23 06:47:04;;;;;;;;;;;;;;;7.82;100.00;101318.25;10461870;28;20359;-69
2023/02/23 06:52:07;;;;;;;;;;;;;;;7.77;100.00;101326.22;10420464;28;19961;-69
2023/02/23 06:57:09;;;;;;;;;;;;;;;7.76;100.00;101332.31;10420236;28;19925;-70
2023/02/23 07:02:12;;;;;;;;;;;;;;;7.81;100.00;101345.19;10422274;28;20318;-70
2023/02/23 07:07:14;;;;;;;;;;;;;;;7.82;100.00;101347.75;10476147;28;19943;-69
2023/02/23 07:12:16;;;;;;;;;;;;;;;7.74;100.00;101355.00;10462044;28;19929;-70
2023/02/23 07:17:18;;;;;;;;;;;;;;;7.76;100.00;101354.94;10460820;28;19975;-71
2023/02/23 07:22:21;;;;;;;;;;;;;;;7.75;100.00;101361.94;10461559;28;19929;-70
2023/02/23 07:27:23;;;;;;;;;;;;;;;7.87;100.00;101370.19;10460470;28;19972;-70
2023/02/23 07:32:25;;;;;;;;;;;;;;;7.89;100.00;101377.06;10476698;28;19974;-70
2023/02/23 07:37:28;;;;;;;;;;;;;;;7.92;100.00;101376.09;10460470;28;20069;-70
2023/02/23 07:42:30;;;;;;;;;;;;;;;7.94;100.00;101382.94;10458179;28;19928;-70
2023/02/23 07:47:33;;;;;;;;;;;;;;;7.94;100.00;101382.94;10459827;28;19924;-71
2023/02/23 07:52:36;;;;;;;;;;;;;;;8.00;100.00;101392.28;10459866;28;19925;-71
2023/02/23 07:57:38;;;;;;;;;;;;;;;7.74;100.00;101394.09;10460307;28;19955;-71
2023/02/23 08:02:40;;;;;;;;;;;;;;;7.81;100.00;101406.00;10438943;28;19928;-70
2023/02/23 08:07:43;;;;;;;;;;;;;;;7.87;100.00;101406.69;10458607;28;20273;-70
2023/02/23 08:12:45;;;;;;;;;;;;;;;7.91;100.00;101409.13;10458121;28;20323;-71
2023/02/23 08:17:47;;;;;;;;;;;;;;;7.99;100.00;101414.06;10459582;28;20016;-71
2023/02/23 08:22:53;;;;;;;;;;;;;;;8.27;100.00;101419.13;10459263;28;19932;-70
2023/02/23 08:27:55;;;;;;;;;;;;;;;8.24;100.00;101413.16;10473863;28;19925;-71
2023/02/23 08:32:58;;;;;;;;;;;;;;;8.15;100.00;101416.94;10473260;28;19925;-71
2023/02/23 08:38:00;;;;;;;;;;;;;;;8.34;100.00;101419.75;10474110;28;19931;-71
2023/02/23 08:43:02;;;;;;;;;;;;;;;8.18;100.00;101428.13;10472644;28;19924;-71
2023/02/23 08:48:05;;;;;;;;;;;;;;;8.22;100.00;101441.94;10457979;28;19925;-71
2023/02/23 08:53:08;;;;;;;;;;;;;;;8.32;100.00;101442.41;10455166;28;19925;-72
2023/02/23 08:58:11;;;;;;;;;;;;;;;8.32;100.00;101443.28;10457832;28;19925;-71
2023/02/23 09:03:13;;;;;;;;;;;;;;;8.50;100.00;101441.75;10457108;28;19979;-71
2023/02/23 09:08:15;;;;;;;;;;;;;;;8.64;100.00;101442.97;10471501;28;19924;-71
2023/02/23 09:13:18;;;;;;;;;;;;;;;8.85;100.00;101456.94;10480770;22;19974;-69
2023/02/23 09:18:21;;;;;;;;;;;;;;;8.50;100.00;101453.94;10456918;28;19982;-70
2023/02/23 09:23:27;;;;;;;;;;;;;;;8.77;100.00;101462.47;10457459;28;19928;-68
2023/02/23 09:28:29;;;;;;;;;;;;;;;8.56;100.00;101461.56;10427284;28;19929;-69
2023/02/23 09:33:32;;;;;;;;;;;;;;;8.76;100.00;101473.84;10455139;28;19931;-69
2023/02/23 09:38:34;;;;;;;;;;;;;;;8.59;100.00;101471.88;10456274;28;19925;-70
2023/02/23 09:43:39;;;;;;;;;;;;;;;8.78;100.00;101479.00;10455682;28;19929;-69
2023/02/23 09:48:42;;;;;;;;;;;;;;;8.96;100.00;101475.66;10438631;28;19931;-69
2023/02/23 09:53:46;;;;;;;;;;;;;;;8.76;100.00;101486.91;10456174;28;20330;-69
2023/02/23 09:58:49;;;;;;;;;;;;;;;8.68;100.00;101486.34;10438574;28;20011;-69
2023/02/23 10:04:01;;;;;;;;;;;;;;;8.93;100.00;101484.47;10456903;28;20382;-69
2023/02/23 10:09:06;;;;;;;;;;;;;;;9.01;100.00;101485.91;10464596;28;19952;-69
2023/02/23 10:14:15;;;;;;;;;;;;;;;9.04;100.00;101481.41;10463934;28;19978;-69
2023/02/23 10:19:21;;;;;;;;;;;;;;;8.80;100.00;101485.00;10446513;28;19929;-69
2023/02/23 10:24:26;;;;;;;;;;;;;;;8.68;100.00;101483.72;10445648;28;20307;-69
2023/02/23 10:29:32;;;;;;;;;;;;;;;8.96;100.00;101477.41;10429741;28;20003;-69
2023/02/23 10:34:35;;;;;;;;;;;;;;;9.03;100.00;101476.28;10445869;28;19925;-69
2023/02/23 10:39:37;;;;;;;;;;;;;;;9.28;100.00;101492.66;10445004;28;20275;-69
2023/02/23 10:44:41;;;;;;;;;;;;;;;9.25;100.00;101492.78;10445400;28;19928;-69
2023/02/23 10:49:47;;;;;;;;;;;;;;;8.82;100.00;101491.84;10445836;28;19929;-69
2023/02/23 10:54:50;;;;;;;;;;;;;;;9.09;100.00;101497.78;10462707;28;19991;-69
2023/02/23 11:00:08;;;;;;;;;;;;;;;8.71;100.00;101507.94;10444915;28;19933;-69
2023/02/23 11:05:29;;;;;;;;;;;;;;;8.68;100.00;101512.44;10462401;28;19983;-69
2023/02/23 11:10:31;;;;;;;;;;;;;;;8.88;100.00;101511.69;10462179;28;19924;-69
2023/02/23 11:15:34;;;;;;;;;;;;;;;8.73;100.00;101506.13;10443337;28;19928;-69
2023/02/23 11:20:51;;;;;;;;;;;;;;;8.78;100.00;101510.34;10445718;28;20373;-69
2023/02/23 11:25:54;;;;;;;;;;;;;;;8.66;100.00;101506.44;10441665;28;19928;-68
2023/02/23 11:31:00;;;;;;;;;;;;;;;8.90;100.00;101507.25;10435526;28;20260;-68
2023/02/23 11:36:21;;;;;;;;;;;;;;;8.46;100.00;101494.97;10459699;28;19972;-68
2023/02/23 11:41:23;;;;;;;;;;;;;;;8.80;100.00;101493.69;10419707;28;19926;-68
2023/02/23 11:46:26;;;;;;;;;;;;;;;9.10;100.00;101494.22;10418969;28;19925;-68
2023/02/23 11:51:32;;;;;;;;;;;;;;;9.35;100.00;101481.97;10424651;28;19967;-68
2023/02/23 11:56:35;;;;;;;;;;;;;;;9.25;100.00;101487.53;10426732;28;19928;-69
2023/02/23 12:01:43;;;;;;;;;;;;;;;9.33;100.00;101497.69;10406083;28;20369;-69
2023/02/23 12:06:45;;;;;;;;;;;;;;;8.79;100.00;101502.41;10400901;28;19932;-69
2023/02/23 12:11:53;;;;;;;;;;;;;;;9.38;100.00;101487.03;10419902;28;19932;-69
2023/02/23 12:16:58;;;;;;;;;;;;;;;9.65;100.00;101477.19;10457239;28;20365;-69
2023/02/23 12:22:10;;;;;;;;;;;;;;;9.78;100.00;101478.34;10458765;28;19933;-69
2023/02/23 12:27:12;;;;;;;;;;;;;;;9.66;100.00;101473.66;10440337;28;19924;-68
2023/02/23 12:32:17;;;;;;;;;;;;;;;9.26;100.00;101473.56;10459203;28;19924;-69
2023/02/23 12:37:27;;;;;;;;;;;;;;;9.85;100.00;101487.66;10458620;28;19929;-70
2023/02/23 12:42:35;;;;;;;;;;;;;;;9.32;100.00;101477.69;10458124;28;20430;-69
2023/02/23 12:47:37;;;;;;;;;;;;;;;9.40;100.00;101482.63;10440288;28;19924;-69
2023/02/23 12:52:44;;;;;;;;;;;;;;;9.24;100.00;101485.00;10457570;28;19974;-70
2023/02/23 12:57:47;;;;;;;;;;;;;;;9.28;100.00;101482.19;10437476;28;20276;-69
2023/02/23 13:03:09;;;;;;;;;;;;;;;8.79;100.00;101488.53;10426994;28;19932;-69
2023/02/23 13:08:30;;;;;;;;;;;;;;;9.19;100.00;101477.34;10416162;28;20004;-69
2023/02/23 13:13:51;;;;;;;;;;;;;;;9.07;100.00;101486.50;10415440;28;19925;-69
2023/02/23 13:19:06;;;;;;;;;;;;;;;9.18;100.00;101488.72;10415739;28;20303;-69
2023/02/23 13:24:13;;;;;;;;;;;;;;;9.27;100.00;101485.72;10414443;28;19995;-69
2023/02/23 13:29:15;;;;;;;;;;;;;;;9.64;100.00;101471.09;10415547;28;19952;-69
2023/02/23 13:34:23;;;;;;;;;;;;;;;9.62;100.00;101472.94;10416096;28;19925;-69
2023/02/23 13:39:44;;;;;;;;;;;;;;;9.67;100.00;101462.28;10418473;28;19971;-69
2023/02/23 13:45:05;;;;;;;;;;;;;;;9.84;100.00;101470.25;10422513;28;20323;-69
2023/02/23 13:50:16;;;;;;;;;;;;;;;9.28;100.00;101471.75;10424162;28;19925;-69
2023/02/23 13:55:24;;;;;;;;;;;;;;;8.95;100.00;101473.94;10423934;28;20000;-69
2023/02/23 14:00:27;;;;;;;;;;;;;;;8.96;100.00;101480.91;10423659;28;19925;-69
2023/02/23 14:05:30;;;;;;;;;;;;;;;9.07;100.00;101485.69;10422325;28;20072;-69
2023/02/23 14:10:39;;;;;;;;;;;;;;;9.10;100.00;101472.50;10422671;28;19925;-69
2023/02/23 14:15:43;;;;;;;;;;;;;;;8.76;100.00;101476.44;10422518;28;19925;-69
2023/02/23 14:20:48;;;;;;;;;;;;;;;9.10;100.00;101485.56;10422787;28;19925;-69
2023/02/23 14:25:51;;;;;;;;;;;;;;;8.99;100.00;101493.81;10422719;28;19925;-70
2023/02/23 14:31:00;;;;;;;;;;;;;;;9.07;100.00;101489.13;10421884;28;20372;-69
2023/02/23 14:36:22;;;;;;;;;;;;;;;9.23;100.00;101494.59;10422416;28;19932;-69
2023/02/23 14:41:36;;;;;;;;;;;;;;;9.14;100.00;101501.94;10421625;28;19929;-69
2023/02/23 14:46:46;;;;;;;;;;;;;;;9.06;100.00;101492.66;10403725;28;20372;-70
2023/02/23 14:51:50;;;;;;;;;;;;;;;9.08;100.00;101493.47;10420598;28;19991;-69
2023/02/23 14:56:54;;;;;;;;;;;;;;;9.25;100.00;101494.53;10419914;28;20331;-70
2023/02/23 15:01:58;;;;;;;;;;;;;;;9.08;100.00;101493.47;10420270;28;19925;-69
2023/02/23 15:07:00;;;;;;;;;;;;;;;9.24;100.00;101498.91;10421107;28;19975;-69
2023/02/23 15:12:25;;;;;;;;;;;;;;;9.39;100.00;101494.81;10421004;28;19930;-69
2023/02/23 15:17:30;;;;;;;;;;;;;;;9.43;100.00;101496.41;10418939;28;19948;-70
2023/02/23 15:22:33;;;;;;;;;;;;;;;9.13;100.00;101495.00;10418727;28;20372;-69
2023/02/23 15:27:40;;;;;;;;;;;;;;;8.95;100.00;101494.00;10418569;28;20377;-70
2023/02/23 15:32:43;;;;;;;;;;;;;;;9.03;100.00;101490.19;10458318;28;20322;-69
2023/02/23 15:37:45;;;;;;;;;;;;;;;9.06;100.00;101484.84;10461195;28;20015;-70
2023/02/23 15:42:51;;;;;;;;;;;;;;;9.17;100.00;101484.38;10443833;28;19974;-69
2023/02/23 15:47:53;;;;;;;;;;;;;;;9.16;100.00;101493.13;10441985;28;20277;-70
2023/02/23 15:52:56;;;;;;;;;;;;;;;9.00;100.00;101498.13;10460533;28;19970;-69
2023/02/23 15:57:59;;;;;;;;;;;;;;;9.07;100.00;101496.13;10442836;28;19928;-70
2023/02/23 16:03:02;;;;;;;;;;;;;;;8.86;100.00;101500.41;10440016;28;19928;-69
2023/02/23 16:08:06;;;;;;;;;;;;;;;8.89;100.00;101509.00;10448001;28;20281;-69
2023/02/23 16:13:10;;;;;;;;;;;;;;;8.96;100.00;101508.75;10458326;28;20375;-70
2023/02/23 16:18:17;;;;;;;;;;;;;;;8.70;100.00;101508.00;10441394;28;19954;-70
2023/02/23 16:23:24;;;;;;;;;;;;;;;8.73;100.00;101508.72;10457458;28;20082;-69
2023/02/23 16:28:34;;;;;;;;;;;;;;;8.62;100.00;101504.84;10458542;28;19928;-70
2023/02/23 16:34:03;;;;;;;;;;;;;;;8.67;100.00;101510.72;10457176;28;20394;-70
2023/02/23 16:39:09;;;;;;;;;;;;;;;8.83;100.00;101514.47;10454255;28;19925;-70
2023/02/23 16:44:13;;;;;;;;;;;;;;;8.62;100.00;101516.13;10455836;28;19928;-69
2023/02/23 16:49:15;;;;;;;;;;;;;;;8.56;100.00;101516.38;10439863;28;19925;-70
2023/02/23 16:54:17;;;;;;;;;;;;;;;8.38;100.00;101512.63;10451973;28;19932;-70
2023/02/23 16:59:20;;;;;;;;;;;;;;;8.52;100.00;101515.63;10455069;28;19924;-70
2023/02/23 17:04:22;;;;;;;;;;;;;;;8.51;100.00;101524.34;10406147;28;19928;-69
2023/02/23 17:09:25;;;;;;;;;;;;;;;8.52;100.00;101530.41;10457798;28;20011;-70
2023/02/23 17:14:27;;;;;;;;;;;;;;;8.54;100.00;101529.47;10439356;28;19925;-70
2023/02/23 17:19:29;;;;;;;;;;;;;;;8.60;100.00;101535.38;10455734;28;20322;-70
2023/02/23 17:24:32;;;;;;;;;;;;;;;8.35;100.00;101536.22;10454444;28;20016;-70
2023/02/23 17:29:34;;;;;;;;;;;;;;;8.47;100.00;101538.44;10456209;28;19925;-70
2023/02/23 17:34:37;;;;;;;;;;;;;;;8.40;100.00;101543.91;10455706;28;19936;-70
2023/02/23 17:39:39;;;;;;;;;;;;;;;8.42;100.00;101548.13;10430228;28;19933;-70
2023/02/23 17:44:42;;;;;;;;;;;;;;;8.24;100.00;101547.06;10443006;28;19944;-69
2023/02/23 17:49:44;;;;;;;;;;;;;;;8.06;100.00;101550.31;10437062;28;19924;-69
2023/02/23 17:54:46;;;;;;;;;;;;;;;8.38;100.00;101555.22;10427344;28;19924;-70
2023/02/23 17:59:49;;;;;;;;;;;;;;;8.38;100.00;101554.38;10430026;28;19932;-70
2023/02/23 18:04:51;;;;;;;;;;;;;;;8.03;100.00;101572.13;10428882;28;19929;-70
2023/02/23 18:09:53;;;;;;;;;;;;;;;7.61;100.00;101593.50;10455301;28;19924;-70
2023/02/23 18:14:56;;;;;;;;;;;;;;;7.61;100.00;101603.94;10455009;28;19924;-70
2023/02/23 18:19:59;;;;;;;;;;;;;;;7.50;100.00;101608.63;10434599;28;19925;-70
2023/02/23 18:25:01;;;;;;;;;;;;;;;7.67;100.00;101606.34;10456215;28;19936;-70
2023/02/23 18:30:04;;;;;;;;;;;;;;;7.42;100.00;101608.88;10446758;28;19929;-70
2023/02/23 18:35:06;;;;;;;;;;;;;;;7.39;100.00;101604.59;10462370;28;20000;-69
2023/02/23 18:40:19;;;;;;;;;;;;;;;7.28;100.00;101611.06;10461696;28;20375;-70
2023/02/23 18:45:22;;;;;;;;;;;;;;;7.25;100.00;101615.47;10445283;28;19966;-69
2023/02/23 18:50:25;;;;;;;;;;;;;;;7.19;100.00;101609.59;10460022;28;19929;-70
2023/02/23 18:55:27;;;;;;;;;;;;;;;7.19;100.00;101620.00;10462128;28;20020;-70
2023/02/23 19:00:41;;;;;;;;;;;;;;;7.18;100.00;101633.94;10433368;28;19932;-70
2023/02/23 19:05:44;;;;;;;;;;;;;;;7.07;100.00;101640.28;10457323;28;19931;-70
2023/02/23 19:10:47;;;;;;;;;;;;;;;6.38;100.00;101634.41;10462263;28;19928;-70
2023/02/23 19:15:52;;;;;;;;;;;;;;;6.71;100.00;101639.63;10443972;28;19925;-70
2023/02/23 19:20:54;;;;;;;;;;;;;;;6.51;100.00;101654.00;10455535;28;19925;-69
2023/02/23 19:25:57;;;;;;;;;;;;;;;6.19;100.00;101659.22;10441143;28;19975;-69
2023/02/23 19:31:04;;;;;;;;;;;;;;;6.25;100.00;101652.06;10431782;28;19979;-70
2023/02/23 19:36:07;;;;;;;;;;;;;;;6.29;100.00;101645.91;10438695;28;19975;-70
2023/02/23 19:41:10;;;;;;;;;;;;;;;6.58;100.00;101640.84;10459256;28;19924;-70
2023/02/23 19:46:14;;;;;;;;;;;;;;;6.50;100.00;101633.22;10430290;28;19975;-70
2023/02/23 19:51:16;;;;;;;;;;;;;;;6.25;100.00;101638.22;10419485;28;19956;-70
2023/02/23 19:56:19;;;;;;;;;;;;;;;6.08;100.00;101634.31;10450585;28;20012;-70
2023/02/23 20:01:22;;;;;;;;;;;;;;;6.16;100.00;101625.47;10460236;28;19928;-70
2023/02/23 20:06:26;;;;;;;;;;;;;;;5.85;100.00;101627.06;10419821;28;19925;-70
2023/02/23 20:11:31;;;;;;;;;;;;;;;5.87;100.00;101632.22;10433974;28;19925;-70
2023/02/23 20:16:34;;;;;;;;;;;;;;;5.65;100.00;101631.88;10456020;28;19924;-70
2023/02/23 20:21:36;;;;;;;;;;;;;;;5.90;100.00;101627.81;10458107;28;19928;-70
2023/02/23 20:26:39;;;;;;;;;;;;;;;5.58;100.00;101632.03;10458124;28;20035;-70
2023/02/23 20:31:49;;;;;;;;;;;;;;;5.46;100.00;101640.06;10438219;28;19929;-70
2023/02/23 20:36:52;;;;;;;;;;;;;;;5.34;100.00;101628.22;10399720;28;20287;-70
2023/02/23 20:41:55;;;;;;;;;;;;;;;5.28;100.00;101628.38;10411278;28;19924;-70
2023/02/23 20:46:58;;;;;;;;;;;;;;;5.12;100.00;101627.00;10451681;28;19932;-70
2023/02/23 20:52:02;;;;;;;;;;;;;;;4.88;100.00;101626.63;10416355;28;20445;-70
2023/02/23 20:57:07;;;;;;;;;;;;;;;4.77;100.00;101615.59;10382805;28;19932;-69
2023/02/23 21:02:12;;;;;;;;;;;;;;;4.64;100.00;101622.78;10432133;28;19932;-70
2023/02/23 21:07:14;;;;;;;;;;;;;;;4.65;100.00;101624.47;10440585;28;19925;-70
2023/02/23 21:12:18;;;;;;;;;;;;;;;4.59;100.00;101617.69;10457659;28;19978;-70
2023/02/23 21:17:20;;;;;;;;;;;;;;;4.33;100.00;101607.78;10456314;28;19925;-70
2023/02/23 21:22:22;;;;;;;;;;;;;;;4.23;100.00;101603.66;10456729;28;20303;-69
2023/02/23 21:27:25;;;;;;;;;;;;;;;4.15;100.00;101603.78;10455290;22;20407;-68
2023/02/23 21:32:31;;;;;;;;;;;;;;;3.97;100.00;101607.56;10498190;28;19967;-69
2023/02/23 21:37:33;;;;;;;;;;;;;;;4.01;100.00;101601.44;10481408;28;19928;-69
2023/02/23 21:42:39;;;;;;;;;;;;;;;3.70;100.00;101598.53;10497070;28;19932;-69
2023/02/23 21:47:42;;;;;;;;;;;;;;;3.98;100.00;101598.03;10497255;28;19925;-69
2023/02/23 21:52:45;;;;;;;;;;;;;;;3.59;100.00;101593.50;10497646;28;20371;-69
2023/02/23 21:57:48;;;;;;;;;;;;;;;3.77;100.00;101602.72;10495474;28;19925;-69
2023/02/23 22:02:50;;;;;;;;;;;;;;;3.64;100.00;101598.59;10446606;28;19984;-69
2023/02/23 22:07:53;;;;;;;;;;;;;;;3.63;100.00;101602.06;10385110;28;19932;-69
2023/02/23 22:12:55;;;;;;;;;;;;;;;3.57;100.00;101620.31;10404160;28;19925;-69
2023/02/23 22:17:58;;;;;;;;;;;;;;;3.72;100.00;101609.69;10405731;28;19932;-69
2023/02/23 22:23:01;;;;;;;;;;;;;;;3.37;100.00;101613.69;10421717;28;19926;-69
2023/02/23 22:28:07;;;;;;;;;;;;;;;3.48;100.00;101610.91;10422443;28;19979;-69
2023/02/23 22:33:10;;;;;;;;;;;;;;;3.34;100.00;101604.19;10423210;28;19933;-69
2023/02/23 22:38:12;;;;;;;;;;;;;;;3.15;100.00;101603.63;10421831;28;19925;-69
2023/02/23 22:43:15;;;;;;;;;;;;;;;3.17;100.00;101607.03;10421434;28;20364;-69
2023/02/23 22:48:17;;;;;;;;;;;;;;;3.15;100.00;101608.78;10421413;28;20368;-69
2023/02/23 22:53:19;;;;;;;;;;;;;;;3.16;100.00;101597.56;10402984;28;20279;-69
2023/02/23 22:58:23;;;;;;;;;;;;;;;2.98;100.00;101596.09;10420973;28;19925;-69
2023/02/23 23:03:26;;;;;;;;;;;;;;;3.03;100.00;101592.59;10403166;28;19925;-69
2023/02/23 23:08:35;;;;;;;;;;;;;;;2.99;100.00;101586.56;10419896;28;19925;-69
2023/02/23 23:13:42;;;;;;;;;;;;;;;2.98;100.00;101582.31;10402354;28;20335;-69
2023/02/23 23:18:45;;;;;;;;;;;;;;;2.78;100.00;101574.78;10420691;28;19991;-69
2023/02/23 23:23:48;;;;;;;;;;;;;;;2.99;100.00;101573.63;10402439;28;19929;-69
2023/02/23 23:28:56;;;;;;;;;;;;;;;2.66;100.00;101557.69;10418959;28;19932;-69
2023/02/23 23:33:59;;;;;;;;;;;;;;;2.66;100.00;101555.13;10401901;28;19925;-69
2023/02/23 23:39:02;;;;;;;;;;;;;;;2.39;100.00;101556.31;10401878;28;19929;-69
2023/02/23 23:44:05;;;;;;;;;;;;;;;2.36;100.00;101543.41;10402432;28;19925;-68
2023/02/23 23:49:10;;;;;;;;;;;;;;;2.47;100.00;101536.41;10418493;28;20273;-68
2023/02/23 23:54:13;;;;;;;;;;;;;;;2.61;100.00;101533.63;10401030;28;19925;-68
2023/02/23 23:59:16;;;;;;;;;;;;;;;2.78;100.00;101530.81;10401624;28;19925;-68
